sensor_id;sensor_type;location;lat;lon;timestamp;temperature;humidity
28845;DHT22;15976;47.938;7.758;2023-04-16T00:02:02;11.90;67.00
28845;DHT22;15976;47.938;7.758;2023-04-16T00:04:29;11.80;67.30
28845;DHT22;15976;47.938;7.758;2023-04-16T00:06:56;11.80;67.40
28845;DHT22;15976;47.938;7.758;2023-04-16T00:09:23;11.80;67.60
28845;DHT22;15976;47.938;7.758;2023-04-16T00:11:51;11.90;67.80
28845;DHT22;15976;47.938;7.758;2023-04-16T00:14:18;11.90;67.80
28845;DHT22;15976;47.938;7.758;2023-04-16T00:16:45;11.90;67.80
28845;DHT22;15976;47.938;7.758;2023-04-16T00:19:12;11.90;67.80
28845;DHT22;15976;47.938;7.758;2023-04-16T00:21:39;11.90;68.10
28845;DHT22;15976;47.938;7.758;2023-04-16T00:24:06;12.00;68.40
28845;DHT22;15976;47.938;7.758;2023-04-16T00:26:33;11.90;68.50
28845;DHT22;15976;47.938;7.758;2023-04-16T00:29:00;12.00;68.70
28845;DHT22;15976;47.938;7.758;2023-04-16T00:31:32;12.00;69.50
28845;DHT22;15976;47.938;7.758;2023-04-16T00:33:59;12.10;68.90
28845;DHT22;15976;47.938;7.758;2023-04-16T00:36:26;12.00;68.80
28845;DHT22;15976;47.938;7.758;2023-04-16T00:38:54;12.10;68.90
28845;DHT22;15976;47.938;7.758;2023-04-16T00:41:22;12.10;68.80
28845;DHT22;15976;47.938;7.758;2023-04-16T00:43:49;12.00;68.90
28845;DHT22;15976;47.938;7.758;2023-04-16T00:46:22;11.90;68.80
28845;DHT22;15976;47.938;7.758;2023-04-16T00:48:50;11.90;69.10
28845;DHT22;15976;47.938;7.758;2023-04-16T00:51:18;12.00;69.20
28845;DHT22;15976;47.938;7.758;2023-04-16T00:53:48;11.90;69.40
28845;DHT22;15976;47.938;7.758;2023-04-16T00:56:16;12.00;69.20
28845;DHT22;15976;47.938;7.758;2023-04-16T00:58:43;11.90;69.10
28845;DHT22;15976;47.938;7.758;2023-04-16T01:01:11;12.00;69.30
28845;DHT22;15976;47.938;7.758;2023-04-16T01:03:44;12.00;69.40
28845;DHT22;15976;47.938;7.758;2023-04-16T01:06:12;12.00;69.30
28845;DHT22;15976;47.938;7.758;2023-04-16T01:08:39;12.00;69.40
28845;DHT22;15976;47.938;7.758;2023-04-16T01:11:06;12.00;69.50
28845;DHT22;15976;47.938;7.758;2023-04-16T01:13:34;12.00;69.40
28845;DHT22;15976;47.938;7.758;2023-04-16T01:16:06;12.00;69.40
28845;DHT22;15976;47.938;7.758;2023-04-16T01:18:34;11.90;69.40
28845;DHT22;15976;47.938;7.758;2023-04-16T01:21:03;11.90;69.40
28845;DHT22;15976;47.938;7.758;2023-04-16T01:23:31;11.80;69.40
28845;DHT22;15976;47.938;7.758;2023-04-16T01:25:58;11.70;69.50
28845;DHT22;15976;47.938;7.758;2023-04-16T01:28:25;11.70;69.90
28845;DHT22;15976;47.938;7.758;2023-04-16T01:30:52;11.80;70.10
28845;DHT22;15976;47.938;7.758;2023-04-16T01:33:40;11.70;70.10
28845;DHT22;15976;47.938;7.758;2023-04-16T01:36:08;11.70;70.30
28845;DHT22;15976;47.938;7.758;2023-04-16T01:38:35;11.70;70.40
28845;DHT22;15976;47.938;7.758;2023-04-16T01:41:02;11.80;70.50
28845;DHT22;15976;47.938;7.758;2023-04-16T01:43:29;11.80;70.80
28845;DHT22;15976;47.938;7.758;2023-04-16T01:46:28;11.90;70.80
28845;DHT22;15976;47.938;7.758;2023-04-16T01:48:56;11.80;71.00
28845;DHT22;15976;47.938;7.758;2023-04-16T01:51:23;11.90;71.10
28845;DHT22;15976;47.938;7.758;2023-04-16T01:53:50;11.90;71.20
28845;DHT22;15976;47.938;7.758;2023-04-16T01:56:17;12.00;71.40
28845;DHT22;15976;47.938;7.758;2023-04-16T01:58:45;12.00;71.40
28845;DHT22;15976;47.938;7.758;2023-04-16T02:01:15;12.00;71.40
28845;DHT22;15976;47.938;7.758;2023-04-16T02:03:43;12.00;71.50
28845;DHT22;15976;47.938;7.758;2023-04-16T02:06:10;12.00;71.50
28845;DHT22;15976;47.938;7.758;2023-04-16T02:08:37;12.00;71.50
28845;DHT22;15976;47.938;7.758;2023-04-16T02:11:04;12.00;71.50
28845;DHT22;15976;47.938;7.758;2023-04-16T02:13:31;12.00;71.50
28845;DHT22;15976;47.938;7.758;2023-04-16T02:15:58;12.00;71.50
28845;DHT22;15976;47.938;7.758;2023-04-16T02:18:48;11.90;71.50
28845;DHT22;15976;47.938;7.758;2023-04-16T02:21:17;11.90;71.50
28845;DHT22;15976;47.938;7.758;2023-04-16T02:23:44;11.90;71.50
28845;DHT22;15976;47.938;7.758;2023-04-16T02:26:14;11.80;71.60
28845;DHT22;15976;47.938;7.758;2023-04-16T02:28:42;11.80;71.80
28845;DHT22;15976;47.938;7.758;2023-04-16T02:31:10;11.70;72.10
28845;DHT22;15976;47.938;7.758;2023-04-16T02:33:42;11.70;72.30
28845;DHT22;15976;47.938;7.758;2023-04-16T02:36:09;11.60;72.50
28845;DHT22;15976;47.938;7.758;2023-04-16T02:38:37;11.60;72.70
28845;DHT22;15976;47.938;7.758;2023-04-16T02:41:06;11.50;73.00
28845;DHT22;15976;47.938;7.758;2023-04-16T02:43:33;11.50;74.00
28845;DHT22;15976;47.938;7.758;2023-04-16T02:46:01;11.50;73.40
28845;DHT22;15976;47.938;7.758;2023-04-16T02:48:28;11.60;73.40
28845;DHT22;15976;47.938;7.758;2023-04-16T02:50:55;11.60;73.20
28845;DHT22;15976;47.938;7.758;2023-04-16T02:53:22;11.60;72.80
28845;DHT22;15976;47.938;7.758;2023-04-16T02:55:53;11.50;72.80
28845;DHT22;15976;47.938;7.758;2023-04-16T02:58:22;11.50;73.00
28845;DHT22;15976;47.938;7.758;2023-04-16T03:00:53;11.60;73.20
28845;DHT22;15976;47.938;7.758;2023-04-16T03:03:21;11.60;73.20
28845;DHT22;15976;47.938;7.758;2023-04-16T03:05:48;11.60;73.20
28845;DHT22;15976;47.938;7.758;2023-04-16T03:08:15;11.60;73.00
28845;DHT22;15976;47.938;7.758;2023-04-16T03:10:42;11.60;72.60
28845;DHT22;15976;47.938;7.758;2023-04-16T03:13:09;11.60;72.70
28845;DHT22;15976;47.938;7.758;2023-04-16T03:15:36;11.60;72.60
28845;DHT22;15976;47.938;7.758;2023-04-16T03:18:03;11.60;72.50
28845;DHT22;15976;47.938;7.758;2023-04-16T03:20:30;11.60;72.40
28845;DHT22;15976;47.938;7.758;2023-04-16T03:22:57;11.60;72.20
28845;DHT22;15976;47.938;7.758;2023-04-16T03:25:25;11.50;72.10
28845;DHT22;15976;47.938;7.758;2023-04-16T03:27:51;11.50;72.10
28845;DHT22;15976;47.938;7.758;2023-04-16T03:30:19;11.50;72.00
28845;DHT22;15976;47.938;7.758;2023-04-16T03:32:46;11.50;71.90
28845;DHT22;15976;47.938;7.758;2023-04-16T03:35:13;11.50;71.90
28845;DHT22;15976;47.938;7.758;2023-04-16T03:37:41;11.60;71.90
28845;DHT22;15976;47.938;7.758;2023-04-16T03:40:08;11.60;71.70
28845;DHT22;15976;47.938;7.758;2023-04-16T03:42:36;11.60;71.70
28845;DHT22;15976;47.938;7.758;2023-04-16T03:45:05;11.70;71.80
28845;DHT22;15976;47.938;7.758;2023-04-16T03:47:32;11.70;72.10
28845;DHT22;15976;47.938;7.758;2023-04-16T03:50:02;11.70;72.10
28845;DHT22;15976;47.938;7.758;2023-04-16T03:52:29;11.70;72.20
28845;DHT22;15976;47.938;7.758;2023-04-16T03:54:56;11.70;72.00
28845;DHT22;15976;47.938;7.758;2023-04-16T03:57:29;11.70;71.90
28845;DHT22;15976;47.938;7.758;2023-04-16T04:00:02;11.60;71.80
28845;DHT22;15976;47.938;7.758;2023-04-16T04:02:39;11.60;72.10
28845;DHT22;15976;47.938;7.758;2023-04-16T04:05:14;11.60;72.00
28845;DHT22;15976;47.938;7.758;2023-04-16T04:07:43;11.70;72.20
28845;DHT22;15976;47.938;7.758;2023-04-16T04:10:10;11.70;72.20
28845;DHT22;15976;47.938;7.758;2023-04-16T04:12:40;11.70;72.40
28845;DHT22;15976;47.938;7.758;2023-04-16T04:15:08;11.70;72.60
28845;DHT22;15976;47.938;7.758;2023-04-16T04:17:35;11.70;72.70
28845;DHT22;15976;47.938;7.758;2023-04-16T04:20:02;11.70;72.60
28845;DHT22;15976;47.938;7.758;2023-04-16T04:22:30;11.70;72.60
28845;DHT22;15976;47.938;7.758;2023-04-16T04:24:57;11.80;72.70
28845;DHT22;15976;47.938;7.758;2023-04-16T04:27:27;11.70;72.50
28845;DHT22;15976;47.938;7.758;2023-04-16T04:29:55;11.70;72.50
28845;DHT22;15976;47.938;7.758;2023-04-16T04:32:23;11.70;72.40
28845;DHT22;15976;47.938;7.758;2023-04-16T04:34:50;11.70;72.20
28845;DHT22;15976;47.938;7.758;2023-04-16T04:37:17;11.70;72.20
28845;DHT22;15976;47.938;7.758;2023-04-16T04:39:44;11.70;72.10
28845;DHT22;15976;47.938;7.758;2023-04-16T04:42:11;11.60;71.80
28845;DHT22;15976;47.938;7.758;2023-04-16T04:44:39;11.60;71.90
28845;DHT22;15976;47.938;7.758;2023-04-16T04:47:07;11.60;72.20
28845;DHT22;15976;47.938;7.758;2023-04-16T04:49:34;11.60;72.40
28845;DHT22;15976;47.938;7.758;2023-04-16T04:52:02;11.60;72.40
28845;DHT22;15976;47.938;7.758;2023-04-16T04:54:30;11.60;72.20
28845;DHT22;15976;47.938;7.758;2023-04-16T04:57:01;11.50;72.00
28845;DHT22;15976;47.938;7.758;2023-04-16T04:59:29;11.50;72.30
28845;DHT22;15976;47.938;7.758;2023-04-16T05:01:56;11.50;72.20
28845;DHT22;15976;47.938;7.758;2023-04-16T05:04:23;11.50;72.30
28845;DHT22;15976;47.938;7.758;2023-04-16T05:06:50;11.50;72.30
28845;DHT22;15976;47.938;7.758;2023-04-16T05:09:17;11.40;72.30
28845;DHT22;15976;47.938;7.758;2023-04-16T05:11:44;11.40;72.50
28845;DHT22;15976;47.938;7.758;2023-04-16T05:14:11;11.30;72.30
28845;DHT22;15976;47.938;7.758;2023-04-16T05:16:38;11.30;72.40
28845;DHT22;15976;47.938;7.758;2023-04-16T05:19:05;11.30;72.60
28845;DHT22;15976;47.938;7.758;2023-04-16T05:21:33;11.30;72.50
28845;DHT22;15976;47.938;7.758;2023-04-16T05:24:00;11.40;72.40
28845;DHT22;15976;47.938;7.758;2023-04-16T05:26:30;11.40;72.20
28845;DHT22;15976;47.938;7.758;2023-04-16T05:28:57;11.40;72.00
28845;DHT22;15976;47.938;7.758;2023-04-16T05:31:27;11.50;72.20
28845;DHT22;15976;47.938;7.758;2023-04-16T05:33:54;11.50;72.10
28845;DHT22;15976;47.938;7.758;2023-04-16T05:36:21;11.50;72.80
28845;DHT22;15976;47.938;7.758;2023-04-16T05:38:48;11.50;72.00
28845;DHT22;15976;47.938;7.758;2023-04-16T05:41:16;11.50;71.90
28845;DHT22;15976;47.938;7.758;2023-04-16T05:43:44;11.50;71.90
28845;DHT22;15976;47.938;7.758;2023-04-16T05:46:11;11.50;72.10
28845;DHT22;15976;47.938;7.758;2023-04-16T05:48:38;11.50;71.90
28845;DHT22;15976;47.938;7.758;2023-04-16T05:51:05;11.50;71.70
28845;DHT22;15976;47.938;7.758;2023-04-16T05:53:32;11.50;71.60
28845;DHT22;15976;47.938;7.758;2023-04-16T05:55:59;11.50;71.50
28845;DHT22;15976;47.938;7.758;2023-04-16T05:58:26;11.50;71.50
28845;DHT22;15976;47.938;7.758;2023-04-16T06:00:53;11.50;71.60
28845;DHT22;15976;47.938;7.758;2023-04-16T06:03:20;11.50;71.50
28845;DHT22;15976;47.938;7.758;2023-04-16T06:05:47;11.60;71.50
28845;DHT22;15976;47.938;7.758;2023-04-16T06:08:15;11.60;71.70
28845;DHT22;15976;47.938;7.758;2023-04-16T06:10:41;11.60;71.50
28845;DHT22;15976;47.938;7.758;2023-04-16T06:13:08;11.70;71.40
28845;DHT22;15976;47.938;7.758;2023-04-16T06:15:35;11.70;71.60
28845;DHT22;15976;47.938;7.758;2023-04-16T06:18:03;11.70;71.70
28845;DHT22;15976;47.938;7.758;2023-04-16T06:20:30;11.70;71.40
28845;DHT22;15976;47.938;7.758;2023-04-16T06:22:57;11.70;71.60
28845;DHT22;15976;47.938;7.758;2023-04-16T06:25:24;11.70;71.60
28845;DHT22;15976;47.938;7.758;2023-04-16T06:27:51;11.70;71.80
28845;DHT22;15976;47.938;7.758;2023-04-16T06:30:18;11.70;72.00
28845;DHT22;15976;47.938;7.758;2023-04-16T06:32:45;11.70;72.20
28845;DHT22;15976;47.938;7.758;2023-04-16T06:35:13;11.80;72.50
28845;DHT22;15976;47.938;7.758;2023-04-16T06:37:41;11.80;73.30
28845;DHT22;15976;47.938;7.758;2023-04-16T06:40:08;11.80;72.60
28845;DHT22;15976;47.938;7.758;2023-04-16T06:42:35;11.80;72.80
28845;DHT22;15976;47.938;7.758;2023-04-16T06:45:04;11.80;73.00
28845;DHT22;15976;47.938;7.758;2023-04-16T06:47:32;11.80;73.30
28845;DHT22;15976;47.938;7.758;2023-04-16T06:50:06;11.80;73.40
28845;DHT22;15976;47.938;7.758;2023-04-16T06:52:34;11.80;73.60
28845;DHT22;15976;47.938;7.758;2023-04-16T06:55:01;11.80;73.80
28845;DHT22;15976;47.938;7.758;2023-04-16T06:57:28;11.80;73.90
28845;DHT22;15976;47.938;7.758;2023-04-16T07:00:02;11.70;73.90
28845;DHT22;15976;47.938;7.758;2023-04-16T07:02:30;11.70;74.20
28845;DHT22;15976;47.938;7.758;2023-04-16T07:04:58;11.70;74.30
28845;DHT22;15976;47.938;7.758;2023-04-16T07:07:25;11.70;74.50
28845;DHT22;15976;47.938;7.758;2023-04-16T07:09:52;11.70;74.50
28845;DHT22;15976;47.938;7.758;2023-04-16T07:12:19;11.70;74.60
28845;DHT22;15976;47.938;7.758;2023-04-16T07:14:48;11.70;74.60
28845;DHT22;15976;47.938;7.758;2023-04-16T07:17:15;11.70;74.80
28845;DHT22;15976;47.938;7.758;2023-04-16T07:19:42;11.70;74.90
28845;DHT22;15976;47.938;7.758;2023-04-16T07:22:09;11.60;74.70
28845;DHT22;15976;47.938;7.758;2023-04-16T07:24:36;11.50;74.90
28845;DHT22;15976;47.938;7.758;2023-04-16T07:27:04;11.60;75.20
28845;DHT22;15976;47.938;7.758;2023-04-16T07:29:31;11.60;75.20
28845;DHT22;15976;47.938;7.758;2023-04-16T07:31:58;11.60;75.10
28845;DHT22;15976;47.938;7.758;2023-04-16T07:35:04;11.60;75.10
28845;DHT22;15976;47.938;7.758;2023-04-16T07:42:03;11.60;75.00
28845;DHT22;15976;47.938;7.758;2023-04-16T07:45:13;11.50;74.90
28845;DHT22;15976;47.938;7.758;2023-04-16T07:48:25;11.40;74.90
28845;DHT22;15976;47.938;7.758;2023-04-16T07:51:01;11.40;74.80
28845;DHT22;15976;47.938;7.758;2023-04-16T07:56:40;11.30;74.80
28845;DHT22;15976;47.938;7.758;2023-04-16T07:59:32;11.30;74.60
28845;DHT22;15976;47.938;7.758;2023-04-16T08:02:30;11.30;74.50
28845;DHT22;15976;47.938;7.758;2023-04-16T08:04:59;11.40;74.30
28845;DHT22;15976;47.938;7.758;2023-04-16T08:07:26;11.40;74.10
28845;DHT22;15976;47.938;7.758;2023-04-16T08:09:53;11.40;74.00
28845;DHT22;15976;47.938;7.758;2023-04-16T08:12:21;11.50;73.90
28845;DHT22;15976;47.938;7.758;2023-04-16T08:14:48;11.40;73.40
28845;DHT22;15976;47.938;7.758;2023-04-16T08:17:15;11.40;73.50
28845;DHT22;15976;47.938;7.758;2023-04-16T08:19:45;11.40;73.60
28845;DHT22;15976;47.938;7.758;2023-04-16T08:22:12;11.40;73.70
28845;DHT22;15976;47.938;7.758;2023-04-16T08:24:39;11.40;73.80
28845;DHT22;15976;47.938;7.758;2023-04-16T08:27:06;11.30;73.70
28845;DHT22;15976;47.938;7.758;2023-04-16T08:29:44;11.30;73.90
28845;DHT22;15976;47.938;7.758;2023-04-16T08:32:12;11.40;74.00
28845;DHT22;15976;47.938;7.758;2023-04-16T08:34:38;11.30;74.10
28845;DHT22;15976;47.938;7.758;2023-04-16T08:37:06;11.40;73.90
28845;DHT22;15976;47.938;7.758;2023-04-16T08:39:33;11.40;74.00
28845;DHT22;15976;47.938;7.758;2023-04-16T08:42:04;11.50;74.10
28845;DHT22;15976;47.938;7.758;2023-04-16T08:44:34;11.50;73.90
28845;DHT22;15976;47.938;7.758;2023-04-16T08:47:02;11.60;73.90
28845;DHT22;15976;47.938;7.758;2023-04-16T08:49:35;11.60;73.70
28845;DHT22;15976;47.938;7.758;2023-04-16T08:52:04;11.60;73.50
28845;DHT22;15976;47.938;7.758;2023-04-16T08:55:03;11.60;73.50
28845;DHT22;15976;47.938;7.758;2023-04-16T08:57:31;11.60;73.60
28845;DHT22;15976;47.938;7.758;2023-04-16T09:00:01;11.60;73.60
28845;DHT22;15976;47.938;7.758;2023-04-16T09:02:30;11.60;73.70
28845;DHT22;15976;47.938;7.758;2023-04-16T09:04:59;11.60;73.80
28845;DHT22;15976;47.938;7.758;2023-04-16T09:07:28;11.60;73.80
28845;DHT22;15976;47.938;7.758;2023-04-16T09:09:57;11.60;73.80
28845;DHT22;15976;47.938;7.758;2023-04-16T09:12:26;11.60;73.70
28845;DHT22;15976;47.938;7.758;2023-04-16T09:14:54;11.60;73.60
28845;DHT22;15976;47.938;7.758;2023-04-16T09:17:22;11.60;73.80
28845;DHT22;15976;47.938;7.758;2023-04-16T09:19:49;11.60;74.00
28845;DHT22;15976;47.938;7.758;2023-04-16T09:22:17;11.60;73.90
28845;DHT22;15976;47.938;7.758;2023-04-16T09:24:44;11.60;74.00
28845;DHT22;15976;47.938;7.758;2023-04-16T09:27:12;11.60;74.00
28845;DHT22;15976;47.938;7.758;2023-04-16T09:29:41;11.60;74.00
28845;DHT22;15976;47.938;7.758;2023-04-16T09:32:10;11.60;74.00
28845;DHT22;15976;47.938;7.758;2023-04-16T09:34:56;11.70;74.00
28845;DHT22;15976;47.938;7.758;2023-04-16T09:37:28;11.70;74.10
28845;DHT22;15976;47.938;7.758;2023-04-16T09:42:30;11.80;73.90
28845;DHT22;15976;47.938;7.758;2023-04-16T09:44:58;11.70;73.80
28845;DHT22;15976;47.938;7.758;2023-04-16T09:47:43;11.70;74.00
28845;DHT22;15976;47.938;7.758;2023-04-16T09:50:16;11.80;74.30
28845;DHT22;15976;47.938;7.758;2023-04-16T09:52:48;11.80;74.40
28845;DHT22;15976;47.938;7.758;2023-04-16T09:55:26;11.80;74.30
28845;DHT22;15976;47.938;7.758;2023-04-16T09:58:00;11.80;74.40
28845;DHT22;15976;47.938;7.758;2023-04-16T10:00:29;11.80;74.50
28845;DHT22;15976;47.938;7.758;2023-04-16T10:03:04;11.80;74.30
28845;DHT22;15976;47.938;7.758;2023-04-16T10:05:32;11.80;74.20
28845;DHT22;15976;47.938;7.758;2023-04-16T10:07:59;11.80;74.10
28845;DHT22;15976;47.938;7.758;2023-04-16T10:10:28;11.70;74.30
28845;DHT22;15976;47.938;7.758;2023-04-16T10:12:55;11.70;74.20
28845;DHT22;15976;47.938;7.758;2023-04-16T10:15:24;11.70;74.30
28845;DHT22;15976;47.938;7.758;2023-04-16T10:17:53;11.70;74.50
28845;DHT22;15976;47.938;7.758;2023-04-16T10:20:22;11.70;74.50
28845;DHT22;15976;47.938;7.758;2023-04-16T10:22:49;11.80;74.60
28845;DHT22;15976;47.938;7.758;2023-04-16T10:25:19;11.80;74.40
28845;DHT22;15976;47.938;7.758;2023-04-16T10:27:52;11.90;75.20
28845;DHT22;15976;47.938;7.758;2023-04-16T10:30:20;11.90;74.20
28845;DHT22;15976;47.938;7.758;2023-04-16T10:32:48;11.80;74.20
28845;DHT22;15976;47.938;7.758;2023-04-16T10:35:18;11.80;74.40
28845;DHT22;15976;47.938;7.758;2023-04-16T10:37:46;11.70;74.60
28845;DHT22;15976;47.938;7.758;2023-04-16T10:40:24;11.60;74.70
28845;DHT22;15976;47.938;7.758;2023-04-16T10:42:56;11.60;75.20
28845;DHT22;15976;47.938;7.758;2023-04-16T10:45:31;11.60;75.50
28845;DHT22;15976;47.938;7.758;2023-04-16T10:48:05;11.50;75.80
28845;DHT22;15976;47.938;7.758;2023-04-16T10:50:36;11.50;75.80
28845;DHT22;15976;47.938;7.758;2023-04-16T10:53:26;11.60;75.90
28845;DHT22;15976;47.938;7.758;2023-04-16T10:55:57;11.50;75.80
28845;DHT22;15976;47.938;7.758;2023-04-16T10:58:29;11.40;75.90
28845;DHT22;15976;47.938;7.758;2023-04-16T11:01:01;11.40;76.50
28845;DHT22;15976;47.938;7.758;2023-04-16T11:03:32;11.30;76.60
28845;DHT22;15976;47.938;7.758;2023-04-16T11:08:40;11.30;77.20
28845;DHT22;15976;47.938;7.758;2023-04-16T11:11:36;11.30;77.00
28845;DHT22;15976;47.938;7.758;2023-04-16T11:14:04;11.30;77.50
28845;DHT22;15976;47.938;7.758;2023-04-16T11:16:32;11.40;78.30
28845;DHT22;15976;47.938;7.758;2023-04-16T11:18:59;11.50;77.10
28845;DHT22;15976;47.938;7.758;2023-04-16T11:21:27;11.50;77.00
28845;DHT22;15976;47.938;7.758;2023-04-16T11:23:59;11.60;76.80
28845;DHT22;15976;47.938;7.758;2023-04-16T11:27:04;11.60;76.50
28845;DHT22;15976;47.938;7.758;2023-04-16T11:29:32;11.60;76.70
28845;DHT22;15976;47.938;7.758;2023-04-16T11:32:25;11.70;76.50
28845;DHT22;15976;47.938;7.758;2023-04-16T11:35:21;11.80;76.20
28845;DHT22;15976;47.938;7.758;2023-04-16T12:19:26;13.70;69.90
28845;DHT22;15976;47.938;7.758;2023-04-16T12:22:30;13.60;69.80
28845;DHT22;15976;47.938;7.758;2023-04-16T12:25:10;13.50;70.00
28845;DHT22;15976;47.938;7.758;2023-04-16T12:27:40;13.50;70.00
28845;DHT22;15976;47.938;7.758;2023-04-16T12:30:22;13.50;69.90
28845;DHT22;15976;47.938;7.758;2023-04-16T12:33:17;13.40;69.70
28845;DHT22;15976;47.938;7.758;2023-04-16T12:35:47;13.40;69.50
28845;DHT22;15976;47.938;7.758;2023-04-16T12:38:27;13.40;69.50
28845;DHT22;15976;47.938;7.758;2023-04-16T12:40:56;13.30;69.20
28845;DHT22;15976;47.938;7.758;2023-04-16T12:43:29;13.20;69.60
28845;DHT22;15976;47.938;7.758;2023-04-16T12:45:58;13.10;69.80
28845;DHT22;15976;47.938;7.758;2023-04-16T12:48:33;13.00;69.60
28845;DHT22;15976;47.938;7.758;2023-04-16T12:51:02;12.90;69.80
28845;DHT22;15976;47.938;7.758;2023-04-16T12:53:43;12.90;70.30
28845;DHT22;15976;47.938;7.758;2023-04-16T12:59:14;12.80;70.20
28845;DHT22;15976;47.938;7.758;2023-04-16T13:01:50;12.70;70.10
28845;DHT22;15976;47.938;7.758;2023-04-16T13:04:20;12.80;70.10
28845;DHT22;15976;47.938;7.758;2023-04-16T13:06:53;12.70;70.20
28845;DHT22;15976;47.938;7.758;2023-04-16T13:09:25;12.70;70.60
28845;DHT22;15976;47.938;7.758;2023-04-16T13:11:54;12.70;70.90
28845;DHT22;15976;47.938;7.758;2023-04-16T13:14:24;12.70;70.70
28845;DHT22;15976;47.938;7.758;2023-04-16T13:17:19;12.60;70.60
28845;DHT22;15976;47.938;7.758;2023-04-16T13:20:11;12.60;70.70
28845;DHT22;15976;47.938;7.758;2023-04-16T13:22:48;12.60;70.80
28845;DHT22;15976;47.938;7.758;2023-04-16T13:26:06;12.60;70.80
28845;DHT22;15976;47.938;7.758;2023-04-16T13:28:33;12.60;70.70
28845;DHT22;15976;47.938;7.758;2023-04-16T13:30:59;12.60;70.80
28845;DHT22;15976;47.938;7.758;2023-04-16T13:33:31;12.60;70.60
28845;DHT22;15976;47.938;7.758;2023-04-16T13:35:58;12.70;70.20
28845;DHT22;15976;47.938;7.758;2023-04-16T13:38:29;12.70;69.90
28845;DHT22;15976;47.938;7.758;2023-04-16T13:40:56;12.70;70.10
28845;DHT22;15976;47.938;7.758;2023-04-16T13:43:26;12.90;70.40
28845;DHT22;15976;47.938;7.758;2023-04-16T13:45:54;12.90;70.40
28845;DHT22;15976;47.938;7.758;2023-04-16T13:48:21;12.90;70.20
28845;DHT22;15976;47.938;7.758;2023-04-16T13:50:48;13.00;69.90
28845;DHT22;15976;47.938;7.758;2023-04-16T13:53:15;13.10;69.60
28845;DHT22;15976;47.938;7.758;2023-04-16T13:55:43;13.10;69.50
28845;DHT22;15976;47.938;7.758;2023-04-16T13:58:10;13.30;69.30
28845;DHT22;15976;47.938;7.758;2023-04-16T14:00:37;13.60;69.00
28845;DHT22;15976;47.938;7.758;2023-04-16T14:03:04;13.80;68.00
28845;DHT22;15976;47.938;7.758;2023-04-16T14:05:34;14.20;66.90
28845;DHT22;15976;47.938;7.758;2023-04-16T14:08:07;14.40;65.30
28845;DHT22;15976;47.938;7.758;2023-04-16T14:10:40;14.40;64.90
28845;DHT22;15976;47.938;7.758;2023-04-16T14:13:08;14.50;64.80
28845;DHT22;15976;47.938;7.758;2023-04-16T14:15:37;14.80;64.50
28845;DHT22;15976;47.938;7.758;2023-04-16T14:18:04;15.10;63.40
28845;DHT22;15976;47.938;7.758;2023-04-16T14:20:31;15.30;62.20
28845;DHT22;15976;47.938;7.758;2023-04-16T14:22:59;15.30;61.50
28845;DHT22;15976;47.938;7.758;2023-04-16T14:25:27;15.20;61.10
28845;DHT22;15976;47.938;7.758;2023-04-16T14:27:54;15.10;61.30
28845;DHT22;15976;47.938;7.758;2023-04-16T14:30:21;14.80;61.60
28845;DHT22;15976;47.938;7.758;2023-04-16T14:32:48;14.60;62.00
28845;DHT22;15976;47.938;7.758;2023-04-16T14:35:15;14.40;62.10
28845;DHT22;15976;47.938;7.758;2023-04-16T14:37:43;14.20;62.40
28845;DHT22;15976;47.938;7.758;2023-04-16T14:40:13;14.00;63.00
28845;DHT22;15976;47.938;7.758;2023-04-16T14:42:40;13.90;63.80
28845;DHT22;15976;47.938;7.758;2023-04-16T14:45:07;13.80;64.30
28845;DHT22;15976;47.938;7.758;2023-04-16T14:47:35;13.60;64.80
28845;DHT22;15976;47.938;7.758;2023-04-16T14:50:04;13.40;65.20
28845;DHT22;15976;47.938;7.758;2023-04-16T14:52:31;13.10;65.80
28845;DHT22;15976;47.938;7.758;2023-04-16T14:55:00;13.00;66.40
28845;DHT22;15976;47.938;7.758;2023-04-16T14:57:28;13.00;66.60
28845;DHT22;15976;47.938;7.758;2023-04-16T14:59:54;12.90;66.70
28845;DHT22;15976;47.938;7.758;2023-04-16T15:02:22;12.80;66.80
28845;DHT22;15976;47.938;7.758;2023-04-16T15:04:51;12.80;67.00
28845;DHT22;15976;47.938;7.758;2023-04-16T15:07:20;12.70;67.30
28845;DHT22;15976;47.938;7.758;2023-04-16T15:09:47;12.80;67.80
28845;DHT22;15976;47.938;7.758;2023-04-16T15:12:14;12.70;68.10
28845;DHT22;15976;47.938;7.758;2023-04-16T15:14:44;12.70;68.20
28845;DHT22;15976;47.938;7.758;2023-04-16T15:17:12;12.80;68.40
28845;DHT22;15976;47.938;7.758;2023-04-16T15:19:39;12.80;68.30
28845;DHT22;15976;47.938;7.758;2023-04-16T15:22:09;12.80;68.40
28845;DHT22;15976;47.938;7.758;2023-04-16T15:24:36;12.80;68.50
28845;DHT22;15976;47.938;7.758;2023-04-16T15:27:03;12.90;68.50
28845;DHT22;15976;47.938;7.758;2023-04-16T15:29:35;13.00;68.40
28845;DHT22;15976;47.938;7.758;2023-04-16T15:32:02;13.10;68.30
28845;DHT22;15976;47.938;7.758;2023-04-16T15:34:28;13.10;68.00
28845;DHT22;15976;47.938;7.758;2023-04-16T15:36:56;13.20;67.70
28845;DHT22;15976;47.938;7.758;2023-04-16T15:39:25;13.20;67.30
28845;DHT22;15976;47.938;7.758;2023-04-16T15:41:54;13.20;67.30
28845;DHT22;15976;47.938;7.758;2023-04-16T15:44:32;13.20;67.30
28845;DHT22;15976;47.938;7.758;2023-04-16T15:46:59;13.10;67.10
28845;DHT22;15976;47.938;7.758;2023-04-16T15:49:26;13.10;68.10
28845;DHT22;15976;47.938;7.758;2023-04-16T15:51:54;13.00;67.50
28845;DHT22;15976;47.938;7.758;2023-04-16T15:54:21;13.00;67.80
28845;DHT22;15976;47.938;7.758;2023-04-16T15:56:50;12.90;68.00
28845;DHT22;15976;47.938;7.758;2023-04-16T15:59:19;12.80;68.50
28845;DHT22;15976;47.938;7.758;2023-04-16T16:01:48;12.70;68.80
28845;DHT22;15976;47.938;7.758;2023-04-16T16:04:17;12.70;69.00
28845;DHT22;15976;47.938;7.758;2023-04-16T16:06:52;12.80;69.00
28845;DHT22;15976;47.938;7.758;2023-04-16T16:09:22;12.80;69.10
28845;DHT22;15976;47.938;7.758;2023-04-16T16:11:53;12.80;69.00
28845;DHT22;15976;47.938;7.758;2023-04-16T16:14:21;12.90;68.80
28845;DHT22;15976;47.938;7.758;2023-04-16T16:16:48;13.00;68.90
28845;DHT22;15976;47.938;7.758;2023-04-16T16:19:15;12.90;68.60
28845;DHT22;15976;47.938;7.758;2023-04-16T16:22:01;13.00;68.40
28845;DHT22;15976;47.938;7.758;2023-04-16T16:24:44;12.90;68.00
28845;DHT22;15976;47.938;7.758;2023-04-16T16:27:12;12.90;68.00
28845;DHT22;15976;47.938;7.758;2023-04-16T16:29:39;12.80;68.10
28845;DHT22;15976;47.938;7.758;2023-04-16T16:32:07;12.70;68.30
28845;DHT22;15976;47.938;7.758;2023-04-16T16:34:34;12.70;68.40
28845;DHT22;15976;47.938;7.758;2023-04-16T16:37:03;12.70;68.20
28845;DHT22;15976;47.938;7.758;2023-04-16T16:39:31;12.60;68.20
28845;DHT22;15976;47.938;7.758;2023-04-16T16:41:58;12.60;68.50
28845;DHT22;15976;47.938;7.758;2023-04-16T16:44:25;12.50;68.60
28845;DHT22;15976;47.938;7.758;2023-04-16T16:46:52;12.50;68.70